sensor_id;sensor_type;location;lat;lon;timestamp;P1;durP1;ratioP1;P2;durP2;ratioP2
14890;SDS011;7537;48.014;11.590;2023-03-26T00:03:14;1.22;;;0.61;;
14890;SDS011;7537;48.014;11.590;2023-03-26T00:08:51;3.28;;;1.19;;
14890;SDS011;7537;48.014;11.590;2023-03-26T00:14:18;1.16;;;0.65;;
14890;SDS011;7537;48.014;11.590;2023-03-26T00:19:46;5.49;;;1.16;;
14890;SDS011;7537;48.014;11.590;2023-03-26T00:25:13;0.93;;;0.69;;
14890;SDS011;7537;48.014;11.590;2023-03-26T00:30:41;1.54;;;1.02;;
14890;SDS011;7537;48.014;11.590;2023-03-26T00:36:10;4.43;;;1.03;;
14890;SDS011;7537;48.014;11.590;2023-03-26T00:41:37;3.46;;;1.27;;
14890;SDS011;7537;48.014;11.590;2023-03-26T00:47:05;2.09;;;1.09;;
14890;SDS011;7537;48.014;11.590;2023-03-26T00:52:32;1.20;;;1.18;;
14890;SDS011;7537;48.014;11.590;2023-03-26T00:58:00;0.86;;;0.62;;
14890;SDS011;7537;48.014;11.590;2023-03-26T01:03:39;3.49;;;0.84;;
14890;SDS011;7537;48.014;11.590;2023-03-26T01:09:12;2.90;;;1.16;;
14890;SDS011;7537;48.014;11.590;2023-03-26T01:14:41;2.03;;;1.40;;
14890;SDS011;7537;48.014;11.590;2023-03-26T01:20:10;3.34;;;1.49;;
14890;SDS011;7537;48.014;11.590;2023-03-26T01:25:39;1.98;;;0.91;;
14890;SDS011;7537;48.014;11.590;2023-03-26T01:31:10;1.38;;;0.92;;
14890;SDS011;7537;48.014;11.590;2023-03-26T01:36:40;2.37;;;1.08;;
14890;SDS011;7537;48.014;11.590;2023-03-26T01:42:32;4.39;;;1.18;;
14890;SDS011;7537;48.014;11.590;2023-03-26T01:48:04;1.68;;;0.83;;
14890;SDS011;7537;48.014;11.590;2023-03-26T01:53:36;1.85;;;0.89;;
14890;SDS011;7537;48.014;11.590;2023-03-26T01:59:08;2.00;;;1.25;;
14890;SDS011;7537;48.014;11.590;2023-03-26T02:04:40;5.06;;;1.52;;
14890;SDS011;7537;48.014;11.590;2023-03-26T02:10:16;2.54;;;1.23;;
14890;SDS011;7537;48.014;11.590;2023-03-26T02:15:54;2.94;;;1.19;;
14890;SDS011;7537;48.014;11.590;2023-03-26T02:21:23;2.39;;;1.08;;
14890;SDS011;7537;48.014;11.590;2023-03-26T02:26:50;3.13;;;1.61;;
14890;SDS011;7537;48.014;11.590;2023-03-26T02:32:17;3.49;;;1.83;;
14890;SDS011;7537;48.014;11.590;2023-03-26T02:37:45;4.41;;;1.32;;
14890;SDS011;7537;48.014;11.590;2023-03-26T02:43:12;4.79;;;1.76;;
14890;SDS011;7537;48.014;11.590;2023-03-26T02:48:40;4.37;;;1.18;;
14890;SDS011;7537;48.014;11.590;2023-03-26T02:54:08;2.80;;;1.02;;
14890;SDS011;7537;48.014;11.590;2023-03-26T02:59:35;5.60;;;1.49;;
14890;SDS011;7537;48.014;11.590;2023-03-26T03:05:03;2.44;;;1.36;;
14890;SDS011;7537;48.014;11.590;2023-03-26T03:10:33;5.73;;;1.59;;
14890;SDS011;7537;48.014;11.590;2023-03-26T03:16:01;3.82;;;1.57;;
14890;SDS011;7537;48.014;11.590;2023-03-26T03:21:28;4.26;;;1.33;;
14890;SDS011;7537;48.014;11.590;2023-03-26T03:26:56;5.06;;;1.77;;
14890;SDS011;7537;48.014;11.590;2023-03-26T03:32:27;3.93;;;1.18;;
14890;SDS011;7537;48.014;11.590;2023-03-26T03:37:55;2.97;;;1.12;;
14890;SDS011;7537;48.014;11.590;2023-03-26T03:43:22;1.92;;;1.17;;
14890;SDS011;7537;48.014;11.590;2023-03-26T03:48:50;7.24;;;1.46;;
14890;SDS011;7537;48.014;11.590;2023-03-26T03:54:18;4.01;;;1.44;;
14890;SDS011;7537;48.014;11.590;2023-03-26T03:59:47;6.44;;;1.76;;
14890;SDS011;7537;48.014;11.590;2023-03-26T04:05:14;8.99;;;1.60;;
14890;SDS011;7537;48.014;11.590;2023-03-26T04:10:45;4.01;;;1.39;;
14890;SDS011;7537;48.014;11.590;2023-03-26T04:16:13;3.17;;;1.45;;
14890;SDS011;7537;48.014;11.590;2023-03-26T04:21:40;5.50;;;1.77;;
14890;SDS011;7537;48.014;11.590;2023-03-26T04:27:08;7.10;;;1.96;;
14890;SDS011;7537;48.014;11.590;2023-03-26T04:32:37;4.80;;;1.76;;
14890;SDS011;7537;48.014;11.590;2023-03-26T04:38:05;3.44;;;1.40;;
14890;SDS011;7537;48.014;11.590;2023-03-26T04:43:32;5.79;;;1.44;;
14890;SDS011;7537;48.014;11.590;2023-03-26T04:49:00;3.66;;;1.61;;
14890;SDS011;7537;48.014;11.590;2023-03-26T04:54:28;4.71;;;1.27;;
14890;SDS011;7537;48.014;11.590;2023-03-26T04:59:55;3.45;;;1.09;;
14890;SDS011;7537;48.014;11.590;2023-03-26T05:05:23;3.21;;;1.14;;
14890;SDS011;7537;48.014;11.590;2023-03-26T05:10:55;1.67;;;1.02;;
14890;SDS011;7537;48.014;11.590;2023-03-26T05:16:22;2.05;;;0.79;;
14890;SDS011;7537;48.014;11.590;2023-03-26T05:21:50;4.82;;;1.26;;
14890;SDS011;7537;48.014;11.590;2023-03-26T05:27:17;4.48;;;1.41;;
14890;SDS011;7537;48.014;11.590;2023-03-26T05:32:44;1.70;;;0.85;;
14890;SDS011;7537;48.014;11.590;2023-03-26T05:38:12;2.81;;;0.92;;
14890;SDS011;7537;48.014;11.590;2023-03-26T05:43:39;3.87;;;1.58;;
14890;SDS011;7537;48.014;11.590;2023-03-26T05:49:07;5.36;;;2.06;;
14890;SDS011;7537;48.014;11.590;2023-03-26T05:54:34;3.84;;;1.23;;
14890;SDS011;7537;48.014;11.590;2023-03-26T06:00:02;3.73;;;1.12;;
14890;SDS011;7537;48.014;11.590;2023-03-26T06:05:31;4.89;;;1.24;;
14890;SDS011;7537;48.014;11.590;2023-03-26T06:11:03;4.59;;;1.53;;
14890;SDS011;7537;48.014;11.590;2023-03-26T06:16:31;2.17;;;0.94;;
14890;SDS011;7537;48.014;11.590;2023-03-26T06:21:59;2.16;;;1.37;;
14890;SDS011;7537;48.014;11.590;2023-03-26T06:27:26;4.92;;;1.34;;
14890;SDS011;7537;48.014;11.590;2023-03-26T06:32:53;3.40;;;2.47;;
14890;SDS011;7537;48.014;11.590;2023-03-26T06:38:22;2.62;;;0.99;;
14890;SDS011;7537;48.014;11.590;2023-03-26T06:43:49;4.56;;;2.67;;
14890;SDS011;7537;48.014;11.590;2023-03-26T06:49:17;4.05;;;1.65;;
14890;SDS011;7537;48.014;11.590;2023-03-26T06:54:45;5.32;;;1.86;;
14890;SDS011;7537;48.014;11.590;2023-03-26T07:00:14;3.09;;;2.03;;
14890;SDS011;7537;48.014;11.590;2023-03-26T07:05:41;9.76;;;1.41;;
14890;SDS011;7537;48.014;11.590;2023-03-26T07:11:12;6.19;;;1.87;;
14890;SDS011;7537;48.014;11.590;2023-03-26T07:16:39;2.24;;;1.11;;
14890;SDS011;7537;48.014;11.590;2023-03-26T07:22:19;5.72;;;1.76;;
14890;SDS011;7537;48.014;11.590;2023-03-26T07:27:51;5.53;;;2.18;;
14890;SDS011;7537;48.014;11.590;2023-03-26T07:33:21;6.83;;;3.74;;
14890;SDS011;7537;48.014;11.590;2023-03-26T07:38:57;4.82;;;2.05;;
14890;SDS011;7537;48.014;11.590;2023-03-26T07:50:18;3.21;;;1.94;;
14890;SDS011;7537;48.014;11.590;2023-03-26T07:55:51;4.71;;;2.72;;
14890;SDS011;7537;48.014;11.590;2023-03-26T08:01:21;2.08;;;1.63;;
14890;SDS011;7537;48.014;11.590;2023-03-26T08:06:51;4.80;;;1.74;;
14890;SDS011;7537;48.014;11.590;2023-03-26T08:12:25;6.66;;;1.59;;
14890;SDS011;7537;48.014;11.590;2023-03-26T08:17:57;8.97;;;1.40;;
14890;SDS011;7537;48.014;11.590;2023-03-26T08:23:28;5.30;;;1.84;;
14890;SDS011;7537;48.014;11.590;2023-03-26T08:29:00;5.89;;;2.99;;
14890;SDS011;7537;48.014;11.590;2023-03-26T08:34:29;6.44;;;2.03;;
14890;SDS011;7537;48.014;11.590;2023-03-26T08:39:56;2.60;;;1.21;;
14890;SDS011;7537;48.014;11.590;2023-03-26T08:45:38;2.18;;;1.29;;
14890;SDS011;7537;48.014;11.590;2023-03-26T08:57:16;4.07;;;1.29;;
14890;SDS011;7537;48.014;11.590;2023-03-26T09:02:58;3.01;;;1.42;;
14890;SDS011;7537;48.014;11.590;2023-03-26T09:08:49;3.71;;;1.03;;
14890;SDS011;7537;48.014;11.590;2023-03-26T09:14:28;4.91;;;1.08;;
14890;SDS011;7537;48.014;11.590;2023-03-26T09:20:23;3.06;;;1.80;;
14890;SDS011;7537;48.014;11.590;2023-03-26T09:26:04;4.69;;;1.34;;
14890;SDS011;7537;48.014;11.590;2023-03-26T09:31:45;4.96;;;1.59;;
14890;SDS011;7537;48.014;11.590;2023-03-26T09:37:17;7.30;;;1.78;;
14890;SDS011;7537;48.014;11.590;2023-03-26T09:42:53;3.74;;;1.37;;
14890;SDS011;7537;48.014;11.590;2023-03-26T09:48:35;2.81;;;1.74;;
14890;SDS011;7537;48.014;11.590;2023-03-26T09:54:31;4.06;;;1.47;;
14890;SDS011;7537;48.014;11.590;2023-03-26T10:00:23;5.93;;;1.89;;
14890;SDS011;7537;48.014;11.590;2023-03-26T10:06:06;4.03;;;1.93;;
14890;SDS011;7537;48.014;11.590;2023-03-26T10:11:46;3.72;;;1.62;;
14890;SDS011;7537;48.014;11.590;2023-03-26T10:17:25;2.96;;;1.78;;
14890;SDS011;7537;48.014;11.590;2023-03-26T10:23:01;2.57;;;1.56;;
14890;SDS011;7537;48.014;11.590;2023-03-26T10:28:35;2.63;;;1.94;;
14890;SDS011;7537;48.014;11.590;2023-03-26T10:34:20;3.54;;;1.65;;
14890;SDS011;7537;48.014;11.590;2023-03-26T10:39:58;2.10;;;1.84;;
14890;SDS011;7537;48.014;11.590;2023-03-26T10:45:30;2.03;;;1.79;;
14890;SDS011;7537;48.014;11.590;2023-03-26T10:51:14;2.08;;;1.50;;
14890;SDS011;7537;48.014;11.590;2023-03-26T10:56:45;3.20;;;1.65;;
14890;SDS011;7537;48.014;11.590;2023-03-26T11:02:22;3.14;;;1.41;;
14890;SDS011;7537;48.014;11.590;2023-03-26T11:07:54;2.98;;;1.70;;
14890;SDS011;7537;48.014;11.590;2023-03-26T11:13:27;1.91;;;1.86;;
14890;SDS011;7537;48.014;11.590;2023-03-26T11:19:05;5.14;;;1.58;;
14890;SDS011;7537;48.014;11.590;2023-03-26T11:24:41;3.33;;;2.08;;
14890;SDS011;7537;48.014;11.590;2023-03-26T11:30:15;1.98;;;1.05;;
14890;SDS011;7537;48.014;11.590;2023-03-26T11:35:46;2.28;;;1.34;;
14890;SDS011;7537;48.014;11.590;2023-03-26T11:41:15;1.81;;;1.62;;
14890;SDS011;7537;48.014;11.590;2023-03-26T11:46:44;2.24;;;1.49;;
14890;SDS011;7537;48.014;11.590;2023-03-26T11:52:12;2.93;;;1.24;;
14890;SDS011;7537;48.014;11.590;2023-03-26T11:57:40;9.20;;;2.12;;
14890;SDS011;7537;48.014;11.590;2023-03-26T12:03:14;1.73;;;1.24;;
14890;SDS011;7537;48.014;11.590;2023-03-26T12:08:42;2.72;;;1.55;;
14890;SDS011;7537;48.014;11.590;2023-03-26T12:14:12;2.03;;;1.76;;
14890;SDS011;7537;48.014;11.590;2023-03-26T12:19:45;1.89;;;1.64;;
14890;SDS011;7537;48.014;11.590;2023-03-26T12:25:14;2.05;;;1.71;;
14890;SDS011;7537;48.014;11.590;2023-03-26T12:30:49;1.93;;;1.63;;
14890;SDS011;7537;48.014;11.590;2023-03-26T12:36:21;1.47;;;1.26;;
14890;SDS011;7537;48.014;11.590;2023-03-26T12:41:54;2.17;;;1.03;;
14890;SDS011;7537;48.014;11.590;2023-03-26T12:47:24;2.34;;;1.04;;
14890;SDS011;7537;48.014;11.590;2023-03-26T12:52:58;1.76;;;1.13;;
14890;SDS011;7537;48.014;11.590;2023-03-26T12:58:30;0.94;;;0.69;;
14890;SDS011;7537;48.014;11.590;2023-03-26T13:04:05;1.40;;;0.80;;
14890;SDS011;7537;48.014;11.590;2023-03-26T13:09:39;0.93;;;1.02;;
14890;SDS011;7537;48.014;11.590;2023-03-26T13:15:13;0.84;;;0.77;;
14890;SDS011;7537;48.014;11.590;2023-03-26T13:20:49;0.63;;;0.44;;
14890;SDS011;7537;48.014;11.590;2023-03-26T13:26:27;1.40;;;0.48;;
14890;SDS011;7537;48.014;11.590;2023-03-26T13:31:59;2.36;;;0.70;;
14890;SDS011;7537;48.014;11.590;2023-03-26T13:37:29;1.17;;;0.38;;
14890;SDS011;7537;48.014;11.590;2023-03-26T13:43:06;0.49;;;0.51;;
14890;SDS011;7537;48.014;11.590;2023-03-26T13:48:36;2.22;;;0.54;;
14890;SDS011;7537;48.014;11.590;2023-03-26T13:54:08;0.40;;;0.45;;
14890;SDS011;7537;48.014;11.590;2023-03-26T13:59:39;1.27;;;1.11;;
14890;SDS011;7537;48.014;11.590;2023-03-26T14:05:09;1.27;;;0.68;;
14890;SDS011;7537;48.014;11.590;2023-03-26T14:10:40;1.35;;;0.31;;
14890;SDS011;7537;48.014;11.590;2023-03-26T14:16:12;0.77;;;0.61;;
14890;SDS011;7537;48.014;11.590;2023-03-26T14:21:49;0.47;;;0.41;;
14890;SDS011;7537;48.014;11.590;2023-03-26T14:27:25;0.35;;;0.38;;
14890;SDS011;7537;48.014;11.590;2023-03-26T14:33:00;0.54;;;0.63;;
14890;SDS011;7537;48.014;11.590;2023-03-26T14:38:49;0.87;;;0.74;;
14890;SDS011;7537;48.014;11.590;2023-03-26T14:44:35;3.53;;;0.93;;
14890;SDS011;7537;48.014;11.590;2023-03-26T14:56:13;0.74;;;0.76;;
14890;SDS011;7537;48.014;11.590;2023-03-26T15:01:50;0.51;;;0.52;;
14890;SDS011;7537;48.014;11.590;2023-03-26T15:07:28;0.50;;;0.55;;
14890;SDS011;7537;48.014;11.590;2023-03-26T15:13:06;0.99;;;0.71;;
14890;SDS011;7537;48.014;11.590;2023-03-26T15:36:16;2.17;;;1.32;;
14890;SDS011;7537;48.014;11.590;2023-03-26T15:41:50;0.36;;;0.44;;
14890;SDS011;7537;48.014;11.590;2023-03-26T15:53:19;1.37;;;1.01;;
14890;SDS011;7537;48.014;11.590;2023-03-26T15:58:50;2.03;;;0.54;;
14890;SDS011;7537;48.014;11.590;2023-03-26T16:04:23;4.30;;;1.18;;
14890;SDS011;7537;48.014;11.590;2023-03-26T16:09:56;0.44;;;0.49;;
14890;SDS011;7537;48.014;11.590;2023-03-26T16:15:27;1.03;;;0.59;;
14890;SDS011;7537;48.014;11.590;2023-03-26T16:21:00;2.18;;;0.59;;
14890;SDS011;7537;48.014;11.590;2023-03-26T16:26:36;2.38;;;1.92;;
14890;SDS011;7537;48.014;11.590;2023-03-26T16:32:16;2.69;;;0.72;;
14890;SDS011;7537;48.014;11.590;2023-03-26T16:38:03;1.31;;;0.85;;
14890;SDS011;7537;48.014;11.590;2023-03-26T16:43:48;2.51;;;1.78;;
14890;SDS011;7537;48.014;11.590;2023-03-26T16:49:28;2.45;;;1.59;;
14890;SDS011;7537;48.014;11.590;2023-03-26T16:55:02;0.88;;;1.00;;
14890;SDS011;7537;48.014;11.590;2023-03-26T17:06:43;0.56;;;0.61;;
14890;SDS011;7537;48.014;11.590;2023-03-26T17:12:15;0.57;;;0.53;;
14890;SDS011;7537;48.014;11.590;2023-03-26T17:17:49;1.05;;;0.51;;
14890;SDS011;7537;48.014;11.590;2023-03-26T17:23:25;0.54;;;0.48;;
14890;SDS011;7537;48.014;11.590;2023-03-26T17:34:58;0.86;;;0.50;;
14890;SDS011;7537;48.014;11.590;2023-03-26T17:40:42;0.56;;;0.31;;
14890;SDS011;7537;48.014;11.590;2023-03-26T17:46:18;0.83;;;0.76;;
14890;SDS011;7537;48.014;11.590;2023-03-26T17:51:47;1.20;;;0.43;;
14890;SDS011;7537;48.014;11.590;2023-03-26T17:57:17;0.64;;;0.74;;
14890;SDS011;7537;48.014;11.590;2023-03-26T18:02:48;0.16;;;0.18;;
14890;SDS011;7537;48.014;11.590;2023-03-26T18:08:30;0.10;;;0.11;;
14890;SDS011;7537;48.014;11.590;2023-03-26T18:14:22;0.58;;;0.39;;
14890;SDS011;7537;48.014;11.590;2023-03-26T18:19:54;0.06;;;0.08;;
14890;SDS011;7537;48.014;11.590;2023-03-26T18:25:23;0.13;;;0.09;;
14890;SDS011;7537;48.014;11.590;2023-03-26T18:30:57;0.27;;;0.31;;
14890;SDS011;7537;48.014;11.590;2023-03-26T18:36:33;0.11;;;0.13;;
14890;SDS011;7537;48.014;11.590;2023-03-26T18:42:03;0.11;;;0.12;;
14890;SDS011;7537;48.014;11.590;2023-03-26T18:47:31;0.69;;;0.41;;
14890;SDS011;7537;48.014;11.590;2023-03-26T18:52:59;0.23;;;0.24;;
14890;SDS011;7537;48.014;11.590;2023-03-26T18:58:27;0.54;;;0.44;;
14890;SDS011;7537;48.014;11.590;2023-03-26T19:03:56;0.47;;;0.34;;
14890;SDS011;7537;48.014;11.590;2023-03-26T19:09:24;0.23;;;0.22;;
14890;SDS011;7537;48.014;11.590;2023-03-26T19:14:57;0.99;;;0.39;;
14890;SDS011;7537;48.014;11.590;2023-03-26T19:20:28;0.39;;;0.43;;
14890;SDS011;7537;48.014;11.590;2023-03-26T19:26:00;0.57;;;0.44;;
14890;SDS011;7537;48.014;11.590;2023-03-26T19:31:36;0.34;;;0.34;;
14890;SDS011;7537;48.014;11.590;2023-03-26T19:37:18;0.54;;;0.58;;
14890;SDS011;7537;48.014;11.590;2023-03-26T19:42:46;0.33;;;0.35;;
14890;SDS011;7537;48.014;11.590;2023-03-26T19:48:15;0.29;;;0.32;;
14890;SDS011;7537;48.014;11.590;2023-03-26T19:53:45;0.77;;;0.36;;
14890;SDS011;7537;48.014;11.590;2023-03-26T19:59:15;0.21;;;0.24;;
14890;SDS011;7537;48.014;11.590;2023-03-26T20:04:45;1.23;;;0.47;;
14890;SDS011;7537;48.014;11.590;2023-03-26T20:10:17;0.46;;;0.48;;
14890;SDS011;7537;48.014;11.590;2023-03-26T20:15:51;0.54;;;0.54;;
14890;SDS011;7537;48.014;11.590;2023-03-26T20:21:19;0.56;;;0.51;;
14890;SDS011;7537;48.014;11.590;2023-03-26T20:26:47;0.43;;;0.37;;
14890;SDS011;7537;48.014;11.590;2023-03-26T20:32:18;0.29;;;0.33;;
14890;SDS011;7537;48.014;11.590;2023-03-26T20:37:46;0.65;;;0.32;;
14890;SDS011;7537;48.014;11.590;2023-03-26T20:43:15;0.61;;;0.28;;
14890;SDS011;7537;48.014;11.590;2023-03-26T20:48:43;0.58;;;0.52;;
14890;SDS011;7537;48.014;11.590;2023-03-26T20:54:13;0.44;;;0.12;;
14890;SDS011;7537;48.014;11.590;2023-03-26T20:59:42;0.18;;;0.18;;
14890;SDS011;7537;48.014;11.590;2023-03-26T21:05:10;0.36;;;0.32;;
14890;SDS011;7537;48.014;11.590;2023-03-26T21:10:39;0.26;;;0.27;;
14890;SDS011;7537;48.014;11.590;2023-03-26T21:16:08;0.38;;;0.41;;
14890;SDS011;7537;48.014;11.590;2023-03-26T21:21:40;0.48;;;0.47;;
14890;SDS011;7537;48.014;11.590;2023-03-26T21:27:11;0.19;;;0.21;;
14890;SDS011;7537;48.014;11.590;2023-03-26T21:32:47;0.49;;;0.27;;
14890;SDS011;7537;48.014;11.590;2023-03-26T21:38:14;0.23;;;0.21;;
14890;SDS011;7537;48.014;11.590;2023-03-26T21:43:43;0.32;;;0.21;;
14890;SDS011;7537;48.014;11.590;2023-03-26T21:49:13;0.58;;;0.50;;
14890;SDS011;7537;48.014;11.590;2023-03-26T21:54:41;0.70;;;0.45;;
14890;SDS011;7537;48.014;11.590;2023-03-26T22:00:10;0.34;;;0.25;;
14890;SDS011;7537;48.014;11.590;2023-03-26T22:05:41;0.56;;;0.64;;
14890;SDS011;7537;48.014;11.590;2023-03-26T22:11:10;0.57;;;0.35;;
14890;SDS011;7537;48.014;11.590;2023-03-26T22:16:38;0.62;;;0.27;;
14890;SDS011;7537;48.014;11.590;2023-03-26T22:22:05;1.86;;;0.65;;
14890;SDS011;7537;48.014;11.590;2023-03-26T22:27:34;1.51;;;0.31;;
14890;SDS011;7537;48.014;11.590;2023-03-26T22:33:05;0.56;;;0.59;;
14890;SDS011;7537;48.014;11.590;2023-03-26T22:38:32;2.07;;;0.45;;
14890;SDS011;7537;48.014;11.590;2023-03-26T22:44:00;0.96;;;0.56;;
14890;SDS011;7537;48.014;11.590;2023-03-26T22:49:27;4.72;;;0.63;;
14890;SDS011;7537;48.014;11.590;2023-03-26T22:54:56;0.36;;;0.30;;
14890;SDS011;7537;48.014;11.590;2023-03-26T23:00:38;0.58;;;0.24;;
14890;SDS011;7537;48.014;11.590;2023-03-26T23:06:08;0.38;;;0.39;;
14890;SDS011;7537;48.014;11.590;2023-03-26T23:11:35;0.42;;;0.23;;
14890;SDS011;7537;48.014;11.590;2023-03-26T23:17:03;0.37;;;0.20;;
14890;SDS011;7537;48.014;11.590;2023-03-26T23:22:30;0.22;;;0.16;;
14890;SDS011;7537;48.014;11.590;2023-03-26T23:27:57;0.57;;;0.24;;
14890;SDS011;7537;48.014;11.590;2023-03-26T23:33:29;0.59;;;0.37;;
14890;SDS011;7537;48.014;11.590;2023-03-26T23:38:57;0.36;;;0.36;;
14890;SDS011;7537;48.014;11.590;2023-03-26T23:44:25;0.72;;;0.29;;
14890;SDS011;7537;48.014;11.590;2023-03-26T23:49:52;0.73;;;0.34;;
14890;SDS011;7537;48.014;11.590;2023-03-26T23:55:19;1.08;;;0.56;;
